Time;durP1;ratioP1;P1;durP2;ratioP2;P2;SDS_P1;SDS_P2;PMS_P1;PMS_P2;Temp;Humidity;BMP_temperature;BMP_pressure;BME280_temperature;BME280_humidity;BME280_pressure;Samples;Min_cycle;Max_cycle;Signal;HPM_P1;HPM_P2
2023/03/10 00:00:11;;;;;;;15.97;7.80;;;2.10;54.90;;;;;;5133800;27;20190;-66
2023/03/10 00:02:45;;;;;;;12.67;8.43;;;2.20;55.00;;;;;;5133800;27;20234;-68
2023/03/10 00:05:15;;;;;;;19.50;9.17;;;2.10;54.60;;;;;;5133585;27;20195;-67
2023/03/10 00:07:44;;;;;;;19.37;10.60;;;2.20;54.90;;;;;;5133698;27;20605;-68
2023/03/10 00:10:13;;;;;;;20.67;10.20;;;2.30;54.90;;;;;;5133281;27;20301;-67
2023/03/10 00:12:44;;;;;;;18.37;9.50;;;2.30;54.80;;;;;;5133524;27;20194;-66
2023/03/10 00:15:14;;;;;;;21.77;10.57;;;2.40;54.90;;;;;;5133240;27;20591;-74
2023/03/10 00:17:43;;;;;;;16.77;9.40;;;1.90;55.30;;;;;;5133462;27;20727;-70
2023/03/10 00:20:13;;;;;;;14.23;8.57;;;2.10;55.80;;;;;;5133275;27;20731;-75
2023/03/10 00:22:42;;;;;;;13.03;7.70;;;1.90;55.70;;;;;;5133396;27;20239;-73
2023/03/10 00:25:11;;;;;;;17.67;7.40;;;1.90;56.00;;;;;;5133498;27;20188;-67
2023/03/10 00:27:40;;;;;;;11.30;5.90;;;2.00;55.90;;;;;;5133253;27;20731;-66
2023/03/10 00:30:11;;;;;;;13.37;6.90;;;1.80;55.80;;;;;;5149401;27;20670;-70
2023/03/10 00:32:40;;;;;;;12.70;6.53;;;2.00;56.20;;;;;;5133270;27;20199;-67
2023/03/10 00:35:09;;;;;;;7.90;6.17;;;2.10;56.10;;;;;;5133315;27;20183;-67
2023/03/10 00:37:39;;;;;;;15.37;7.27;;;2.10;55.80;;;;;;5133360;27;20191;-69
2023/03/10 00:40:11;;;;;;;11.00;6.67;;;2.00;55.70;;;;;;5133246;27;20675;-71
2023/03/10 00:42:40;;;;;;;15.63;6.83;;;2.10;55.60;;;;;;5133056;27;20200;-69
2023/03/10 00:45:11;;;;;;;12.30;6.50;;;1.90;55.90;;;;;;5114713;27;20253;-70
2023/03/10 00:47:40;;;;;;;9.97;6.77;;;2.00;56.00;;;;;;5133056;27;20245;-68
2023/03/10 00:50:10;;;;;;;12.73;6.30;;;2.00;56.10;;;;;;5133053;27;20639;-69
2023/03/10 00:52:39;;;;;;;12.37;7.20;;;2.10;56.00;;;;;;5132953;27;20223;-67
2023/03/10 00:55:08;;;;;;;11.20;7.23;;;2.10;55.80;;;;;;5132891;27;20241;-70
2023/03/10 00:57:37;;;;;;;12.23;7.37;;;2.10;55.90;;;;;;5114393;27;20228;-68
2023/03/10 01:00:08;;;;;;;10.10;6.67;;;2.30;56.20;;;;;;5148057;27;20198;-68
2023/03/10 01:02:38;;;;;;;11.90;6.00;;;2.30;56.00;;;;;;5114543;27;20246;-68
2023/03/10 01:05:08;;;;;;;11.57;7.13;;;2.00;56.10;;;;;;5132876;27;20183;-67
2023/03/10 01:07:37;;;;;;;12.90;7.23;;;1.80;56.70;;;;;;5132863;27;20665;-68
2023/03/10 01:10:06;;;;;;;11.37;6.83;;;1.90;56.90;;;;;;5132584;27;20232;-68
2023/03/10 01:12:35;;;;;;;9.57;6.10;;;2.00;56.80;;;;;;5113579;27;20669;-66
2023/03/10 01:15:06;;;;;;;8.90;6.10;;;2.00;56.90;;;;;;5132734;28;20187;-67
2023/03/10 01:17:35;;;;;;;8.93;6.17;;;2.00;56.80;;;;;;5114222;28;20249;-67
2023/03/10 01:20:08;;;;;;;11.47;5.90;;;2.10;56.70;;;;;;5114252;28;20200;-66
2023/03/10 01:22:37;;;;;;;13.20;6.17;;;1.90;57.00;;;;;;5114134;28;20660;-67
2023/03/10 01:25:07;;;;;;;12.40;6.33;;;2.00;57.30;;;;;;5113983;28;20206;-68
2023/03/10 01:27:36;;;;;;;9.03;5.33;;;2.00;56.90;;;;;;5134826;27;20196;-68
2023/03/10 01:30:07;;;;;;;12.13;5.30;;;2.00;57.30;;;;;;5118455;27;20592;-69
2023/03/10 01:32:37;;;;;;;12.43;7.47;;;2.20;57.40;;;;;;5136812;27;20620;-68
2023/03/10 01:35:08;;;;;;;8.10;5.70;;;2.20;57.10;;;;;;5136723;27;20221;-65
2023/03/10 01:37:37;;;;;;;10.00;5.20;;;2.30;57.00;;;;;;5118336;27;20661;-66
2023/03/10 01:40:15;;;;;;;9.53;5.30;;;2.20;56.80;;;;;;5118236;27;20228;-68
2023/03/10 01:42:44;;;;;;;8.00;5.00;;;2.00;57.60;;;;;;5136408;27;20707;-77
2023/03/10 01:45:46;;;;;;;10.90;4.77;;;1.80;58.40;;;;;;5118036;27;20196;-67
2023/03/10 01:48:19;;;;;;;8.00;4.13;;;1.60;60.30;;;;;;5118193;27;20195;-74
2023/03/10 01:50:54;;;;;;;5.47;4.20;;;1.40;63.00;;;;;;5118156;27;20203;-76
2023/03/10 01:53:24;;;;;;;7.03;4.33;;;1.60;63.50;;;;;;5136776;27;20190;-71
2023/03/10 01:55:59;;;;;;;6.13;4.10;;;1.70;64.50;;;;;;5136591;27;20714;-70
2023/03/10 01:58:37;;;;;;;6.73;4.33;;;1.40;66.80;;;;;;5117563;27;20290;-67
2023/03/10 02:01:07;;;;;;;5.77;3.90;;;1.30;68.80;;;;;;5117923;27;20227;-68
2023/03/10 02:03:41;;;;;;;5.57;3.80;;;1.20;71.80;;;;;;5117919;27;20205;-68
2023/03/10 02:06:18;;;;;;;7.50;4.20;;;1.00;75.40;;;;;;5117769;27;20227;-70
2023/03/10 02:08:50;;;;;;;6.00;4.10;;;1.00;77.30;;;;;;5136309;27;20192;-73
2023/03/10 02:11:20;;;;;;;4.50;4.10;;;1.10;78.50;;;;;;5117502;27;20231;-73
2023/03/10 02:13:52;;;;;;;6.97;4.67;;;1.00;81.10;;;;;;5135900;27;20273;-68
2023/03/10 02:16:21;;;;;;;7.17;4.10;;;1.00;83.40;;;;;;5136297;27;20525;-67
2023/03/10 02:18:51;;;;;;;7.67;4.33;;;1.10;83.80;;;;;;5136134;27;20220;-69
2023/03/10 02:21:31;;;;;;;7.73;5.20;;;1.00;85.70;;;;;;5117454;27;20215;-71
2023/03/10 02:24:05;;;;;;;4.60;4.10;;;1.10;85.80;;;;;;5135739;27;20199;-71
2023/03/10 02:26:40;;;;;;;6.10;3.87;;;1.10;87.80;;;;;;5135685;27;20205;-69
2023/03/10 02:29:18;;;;;;;6.73;3.73;;;1.10;90.30;;;;;;5135689;27;20653;-74
2023/03/10 02:31:47;;;;;;;5.97;4.90;;;0.90;92.20;;;;;;5117144;27;20241;-74
2023/03/10 02:34:16;;;;;;;7.30;4.43;;;0.90;93.60;;;;;;5151553;27;20205;-72
2023/03/10 02:36:45;;;;;;;7.13;4.80;;;1.00;93.20;;;;;;5117026;27;20658;-74
2023/03/10 02:39:14;;;;;;;5.40;4.37;;;1.20;92.70;;;;;;5134715;27;20191;-74
2023/03/10 02:41:44;;;;;;;5.73;4.17;;;1.30;92.80;;;;;;5116996;27;20253;-71
2023/03/10 02:44:20;;;;;;;7.13;4.77;;;1.40;92.30;;;;;;5116815;27;20195;-71
2023/03/10 02:46:49;;;;;;;6.17;4.10;;;1.40;92.90;;;;;;5116990;27;20203;-74
2023/03/10 02:49:23;;;;;;;6.13;4.20;;;1.40;93.50;;;;;;5151330;27;20686;-76
2023/03/10 02:51:53;;;;;;;4.93;4.43;;;1.30;94.80;;;;;;5116795;27;20747;-76
2023/03/10 02:54:22;;;;;;;5.63;4.17;;;1.40;94.70;;;;;;5116743;27;20205;-76
2023/03/10 02:56:51;;;;;;;7.00;4.43;;;1.30;94.70;;;;;;5116808;27;20214;-72
2023/03/10 02:59:21;;;;;;;7.87;5.10;;;1.40;95.50;;;;;;5135139;27;20199;-73
2023/03/10 03:01:53;;;;;;;5.33;4.37;;;1.40;95.10;;;;;;5116469;27;20219;-68
2023/03/10 03:04:22;;;;;;;6.97;4.77;;;1.20;96.70;;;;;;5134979;27;20196;-70
2023/03/10 03:06:51;;;;;;;7.83;4.67;;;1.30;96.60;;;;;;5116721;27;20206;-70
2023/03/10 03:09:21;;;;;;;5.63;4.43;;;1.20;97.60;;;;;;5116444;27;20202;-69
2023/03/10 03:11:50;;;;;;;8.23;5.33;;;1.30;97.70;;;;;;5116370;27;20589;-70
2023/03/10 03:14:20;;;;;;;7.27;4.30;;;1.50;96.90;;;;;;5134760;27;20214;-68
2023/03/10 03:16:51;;;;;;;8.77;5.17;;;1.20;97.70;;;;;;5116340;27;20675;-70
2023/03/10 03:19:20;;;;;;;9.23;5.93;;;1.10;99.30;;;;;;5134744;27;20199;-70
2023/03/10 03:21:49;;;;;;;6.27;5.17;;;1.20;99.90;;;;;;5134772;27;20214;-72
2023/03/10 03:24:19;;;;;;;8.67;5.27;;;1.30;99.40;;;;;;5116193;27;20672;-73
2023/03/10 03:26:49;;;;;;;6.50;5.77;;;1.40;99.30;;;;;;5116175;27;20668;-70
2023/03/10 03:29:21;;;;;;;10.60;6.23;;;1.40;99.70;;;;;;5116121;27;20199;-70
2023/03/10 03:31:52;;;;;;;10.10;6.47;;;1.60;99.50;;;;;;5150461;27;20679;-70
2023/03/10 03:34:25;;;;;;;11.73;8.90;;;1.40;99.90;;;;;;5115933;27;20671;-70
2023/03/10 03:36:57;;;;;;;9.87;7.90;;;1.00;99.90;;;;;;5115887;27;20574;-69
2023/03/10 03:39:32;;;;;;;12.70;9.63;;;1.00;99.90;;;;;;5115737;27;20204;-72
2023/03/10 03:42:04;;;;;;;12.90;8.63;;;1.10;99.90;;;;;;5115756;27;20697;-68
2023/03/10 03:44:43;;;;;;;17.47;9.83;;;1.20;99.90;;;;;;5115634;27;20271;-68
2023/03/10 03:47:14;;;;;;;17.27;10.10;;;1.30;99.90;;;;;;5150128;27;20237;-73
2023/03/10 03:49:43;;;;;;;14.27;9.57;;;1.30;99.90;;;;;;5115160;27;20204;-74
2023/03/10 03:52:13;;;;;;;17.60;10.60;;;1.30;99.90;;;;;;5114914;27;20199;-73
2023/03/10 03:54:42;;;;;;;18.87;10.53;;;1.20;99.90;;;;;;5115461;27;20205;-71
2023/03/10 03:57:11;;;;;;;15.07;10.60;;;1.10;99.90;;;;;;5115338;27;20688;-68
2023/03/10 03:59:40;;;;;;;16.40;11.17;;;1.20;99.90;;;;;;5115330;27;20657;-69
2023/03/10 04:02:08;;;;;;;15.90;10.80;;;1.10;99.90;;;;;;5115390;27;20232;-68
2023/03/10 04:04:39;;;;;;;16.97;10.50;;;1.00;99.90;;;;;;5115370;27;20737;-70
2023/03/10 04:07:09;;;;;;;13.80;10.90;;;0.90;99.90;;;;;;5115221;27;20212;-70
2023/03/10 04:09:39;;;;;;;15.37;10.57;;;1.10;99.90;;;;;;5114992;27;20563;-70
2023/03/10 04:12:09;;;;;;;13.57;8.87;;;1.20;99.90;;;;;;5133592;27;20196;-69
2023/03/10 04:14:40;;;;;;;12.83;9.27;;;1.20;99.90;;;;;;5115107;27;20199;-68
2023/03/10 04:17:09;;;;;;;14.57;9.80;;;1.10;99.90;;;;;;5133605;27;20649;-69
2023/03/10 04:19:41;;;;;;;9.47;8.50;;;1.10;99.90;;;;;;5149391;27;20212;-72
2023/03/10 04:22:13;;;;;;;12.03;8.67;;;1.10;99.90;;;;;;5114838;27;20254;-72
2023/03/10 04:24:42;;;;;;;11.07;8.77;;;1.30;99.90;;;;;;5114809;27;20207;-68
2023/03/10 04:27:11;;;;;;;13.13;9.43;;;1.00;99.90;;;;;;5149263;27;20196;-68
2023/03/10 04:29:41;;;;;;;9.67;8.40;;;1.00;99.90;;;;;;5114633;27;20206;-67
2023/03/10 04:32:10;;;;;;;11.37;9.47;;;1.00;99.90;;;;;;5149118;27;20191;-68
2023/03/10 04:34:42;;;;;;;11.93;8.10;;;1.10;99.90;;;;;;5114734;27;20233;-75
2023/03/10 04:37:11;;;;;;;12.60;8.57;;;1.30;99.90;;;;;;5114785;27;20240;-69
2023/03/10 04:39:40;;;;;;;12.57;8.27;;;1.30;99.90;;;;;;5114786;27;20207;-70
2023/03/10 04:42:10;;;;;;;11.87;8.50;;;1.40;99.90;;;;;;5148936;27;20202;-74
2023/03/10 04:44:39;;;;;;;9.97;8.60;;;1.20;99.90;;;;;;5148858;27;20199;-73
2023/03/10 04:47:08;;;;;;;15.80;9.47;;;1.20;99.90;;;;;;5149038;27;20634;-71
2023/03/10 04:49:38;;;;;;;11.80;8.80;;;1.10;99.90;;;;;;5114669;27;20204;-66
2023/03/10 04:52:13;;;;;;;12.37;9.50;;;1.10;99.90;;;;;;5114533;27;20231;-66
2023/03/10 04:54:43;;;;;;;14.70;9.57;;;1.30;99.90;;;;;;5114730;27;20557;-71
2023/03/10 04:57:12;;;;;;;14.67;9.93;;;1.30;99.90;;;;;;5148865;27;20206;-70
2023/03/10 04:59:42;;;;;;;13.20;8.40;;;1.20;99.90;;;;;;5114414;27;20213;-67
2023/03/10 05:02:12;;;;;;;10.90;8.50;;;1.10;99.90;;;;;;5114024;27;20672;-73
2023/03/10 05:04:41;;;;;;;13.00;9.30;;;1.20;99.90;;;;;;5114406;27;20202;-75
2023/03/10 05:07:12;;;;;;;13.00;8.93;;;1.10;99.90;;;;;;5114269;27;20205;-75
2023/03/10 05:09:47;;;;;;;15.23;9.17;;;1.10;99.90;;;;;;5148499;27;20202;-71
2023/03/10 05:12:17;;;;;;;13.67;9.57;;;1.10;99.90;;;;;;5114469;27;20652;-71
2023/03/10 05:14:46;;;;;;;14.03;9.10;;;1.30;99.90;;;;;;5132558;27;20619;-71
2023/03/10 05:17:15;;;;;;;13.17;9.53;;;1.40;99.90;;;;;;5114278;28;20569;-72
2023/03/10 05:19:45;;;;;;;14.33;9.83;;;1.40;99.90;;;;;;5148628;27;20214;-71
2023/03/10 05:22:15;;;;;;;17.13;11.00;;;1.40;99.90;;;;;;5114312;28;20204;-72
2023/03/10 05:24:44;;;;;;;22.97;12.70;;;1.30;99.90;;;;;;5132527;28;20764;-74
2023/03/10 05:27:13;;;;;;;16.27;11.50;;;1.20;99.90;;;;;;5114149;28;20659;-69
2023/03/10 05:29:44;;;;;;;15.93;11.13;;;1.10;99.90;;;;;;5113944;28;20221;-74
2023/03/10 05:32:22;;;;;;;17.67;11.67;;;1.30;99.90;;;;;;5113393;28;20290;-70
2023/03/10 05:34:51;;;;;;;14.53;10.30;;;1.20;99.90;;;;;;5114108;28;20684;-73
2023/03/10 05:37:22;;;;;;;16.97;10.73;;;1.30;99.90;;;;;;5113615;28;20199;-71
2023/03/10 05:39:50;;;;;;;13.30;9.23;;;1.40;99.90;;;;;;5113937;28;20191;-74
2023/03/10 05:42:22;;;;;;;13.23;9.23;;;1.40;99.90;;;;;;5114036;28;20203;-73
2023/03/10 05:44:51;;;;;;;17.20;10.67;;;1.30;99.90;;;;;;5113958;28;20233;-69
2023/03/10 05:47:20;;;;;;;16.07;11.60;;;1.30;99.90;;;;;;5114192;28;20287;-73
2023/03/10 05:49:49;;;;;;;19.87;11.90;;;1.40;99.90;;;;;;5113569;28;20203;-73
2023/03/10 05:52:18;;;;;;;16.87;11.67;;;1.40;99.90;;;;;;5113816;28;20200;-71
2023/03/10 05:54:48;;;;;;;21.37;12.87;;;1.40;99.90;;;;;;5113839;28;20223;-73
2023/03/10 05:57:18;;;;;;;19.33;11.60;;;1.40;99.90;;;;;;5113773;28;20195;-71
2023/03/10 05:59:47;;;;;;;13.87;10.63;;;1.30;99.90;;;;;;5113759;28;20207;-69
2023/03/10 06:02:16;;;;;;;16.13;9.17;;;1.20;99.90;;;;;;5113859;28;20199;-70
2023/03/10 06:04:44;;;;;;;19.47;10.63;;;1.20;99.90;;;;;;5132183;28;20223;-70
2023/03/10 06:07:13;;;;;;;19.07;13.50;;;1.20;99.90;;;;;;5132187;28;20649;-72
2023/03/10 06:09:42;;;;;;;44.20;29.53;;;1.30;99.90;;;;;;5147962;27;20210;-71
2023/03/10 06:12:13;;;;;;;16.80;12.90;;;1.20;99.90;;;;;;5132175;28;20263;-68
2023/03/10 06:14:42;;;;;;;14.10;10.27;;;1.30;99.90;;;;;;5134351;27;20213;-71
2023/03/10 06:17:10;;;;;;;15.97;12.50;;;1.20;99.90;;;;;;5116965;27;20556;-69
2023/03/10 06:19:39;;;;;;;19.93;15.67;;;1.40;99.90;;;;;;5135805;27;20259;-72
2023/03/10 06:22:08;;;;;;;20.23;14.37;;;1.50;99.90;;;;;;5135872;27;20199;-72
2023/03/10 06:24:37;;;;;;;15.37;11.87;;;1.50;99.90;;;;;;5135563;27;20776;-71
2023/03/10 06:27:06;;;;;;;21.63;14.87;;;1.10;99.90;;;;;;5135998;27;20191;-69
2023/03/10 06:29:37;;;;;;;21.50;16.33;;;1.30;99.90;;;;;;5135408;27;20195;-70
2023/03/10 06:32:06;;;;;;;20.57;13.63;;;1.30;99.90;;;;;;5135623;27;20219;-75
2023/03/10 06:34:35;;;;;;;26.67;22.23;;;1.20;99.90;;;;;;5135510;27;20951;-74
2023/03/10 06:37:04;;;;;;;42.57;28.23;;;1.50;99.90;;;;;;5135745;27;20689;-68
2023/03/10 06:39:33;;;;;;;27.80;20.30;;;1.60;99.90;;;;;;5135452;27;20191;-70
2023/03/10 06:42:01;;;;;;;18.07;13.63;;;1.50;99.90;;;;;;5135419;27;20544;-69
2023/03/10 06:44:30;;;;;;;12.20;9.23;;;1.50;99.90;;;;;;5135423;27;20212;-75
2023/03/10 06:47:03;;;;;;;15.57;10.00;;;1.40;99.90;;;;;;5135805;27;20191;-68
2023/03/10 06:49:33;;;;;;;76.70;44.37;;;1.40;99.90;;;;;;5135911;27;20673;-70
2023/03/10 06:52:02;;;;;;;60.97;36.57;;;1.60;99.90;;;;;;5135290;27;20199;-69
2023/03/10 06:54:31;;;;;;;55.80;37.90;;;1.50;99.90;;;;;;5135298;27;20196;-71
2023/03/10 06:57:00;;;;;;;21.60;15.20;;;1.70;99.90;;;;;;5135074;27;20290;-73
2023/03/10 06:59:31;;;;;;;21.27;12.90;;;1.70;99.90;;;;;;5135072;27;20199;-75
2023/03/10 07:02:02;;;;;;;19.57;11.50;;;1.70;99.90;;;;;;5135313;27;20202;-69
2023/03/10 07:04:31;;;;;;;23.50;16.10;;;1.70;99.90;;;;;;5135062;27;20229;-76
2023/03/10 07:07:00;;;;;;;28.30;20.23;;;1.70;99.90;;;;;;5134897;27;20560;-75
2023/03/10 07:09:29;;;;;;;24.73;15.27;;;1.40;99.90;;;;;;5134665;27;20202;-69
2023/03/10 07:11:57;;;;;;;21.93;13.87;;;1.50;99.90;;;;;;5134869;27;20184;-68
2023/03/10 07:14:26;;;;;;;20.17;13.50;;;1.70;99.90;;;;;;5134632;27;20199;-76
2023/03/10 07:16:56;;;;;;;20.40;13.37;;;1.80;99.90;;;;;;5134705;27;20189;-68
2023/03/10 07:19:26;;;;;;;24.80;14.40;;;1.80;99.90;;;;;;5134742;27;20207;-67
2023/03/10 07:21:55;;;;;;;21.77;14.60;;;1.80;99.90;;;;;;5134590;27;20205;-74
2023/03/10 07:24:24;;;;;;;27.63;16.40;;;2.00;99.90;;;;;;5134363;27;20227;-76
2023/03/10 07:26:53;;;;;;;28.23;15.97;;;2.20;99.90;;;;;;5134596;27;20230;-76
2023/03/10 07:29:22;;;;;;;24.93;16.13;;;2.10;99.90;;;;;;5134602;27;20245;-74
2023/03/10 07:31:50;;;;;;;21.47;15.40;;;1.70;99.90;;;;;;5134616;27;20569;-75
2023/03/10 07:34:19;;;;;;;21.67;15.87;;;1.70;99.90;;;;;;5134488;27;20187;-76
2023/03/10 07:36:50;;;;;;;21.70;16.70;;;1.80;99.90;;;;;;5134255;27;20239;-74
2023/03/10 07:39:19;;;;;;;24.63;17.33;;;1.90;99.90;;;;;;5134416;27;20296;-69
2023/03/10 07:41:48;;;;;;;20.57;14.63;;;2.10;99.90;;;;;;5134223;27;20618;-68
2023/03/10 07:44:17;;;;;;;22.67;15.07;;;2.20;99.90;;;;;;5134349;27;20267;-73
2023/03/10 07:46:46;;;;;;;15.93;12.40;;;2.00;99.90;;;;;;5134137;27;20736;-72
2023/03/10 07:49:15;;;;;;;26.50;14.97;;;2.10;99.90;;;;;;5134255;27;20219;-77
2023/03/10 07:51:43;;;;;;;21.20;13.13;;;2.30;99.90;;;;;;5134249;27;20255;-75
2023/03/10 07:54:14;;;;;;;21.13;14.83;;;2.30;99.90;;;;;;5133911;27;20557;-72
2023/03/10 07:56:43;;;;;;;17.77;13.53;;;2.20;99.90;;;;;;5115035;27;20199;-75
2023/03/10 07:59:11;;;;;;;36.37;22.77;;;2.40;99.90;;;;;;5133941;27;20273;-71
2023/03/10 08:01:40;;;;;;;32.30;20.53;;;2.10;99.90;;;;;;5133857;27;20562;-75
2023/03/10 08:04:11;;;;;;;28.63;16.33;;;2.10;99.90;;;;;;5133896;27;20214;-73
2023/03/10 08:06:40;;;;;;;21.70;13.97;;;2.30;99.90;;;;;;5133778;27;20561;-72
2023/03/10 08:09:09;;;;;;;19.47;14.20;;;2.10;99.90;;;;;;5128998;27;20550;-74
2023/03/10 08:11:39;;;;;;;25.77;15.90;;;2.10;99.90;;;;;;5112930;28;20265;-73
2023/03/10 08:14:08;;;;;;;19.70;14.33;;;2.10;99.90;;;;;;5132148;27;20196;-76
2023/03/10 08:16:40;;;;;;;86.40;44.33;;;2.10;99.90;;;;;;5133688;27;20631;-67
2023/03/10 08:19:12;;;;;;;77.07;42.43;;;2.40;99.90;;;;;;5119790;27;20661;-68
2023/03/10 08:21:40;;;;;;;71.47;40.60;;;2.60;99.90;;;;;;5112962;28;20460;-70
2023/03/10 08:24:10;;;;;;;77.93;41.73;;;2.80;99.90;;;;;;5112698;28;20245;-68
2023/03/10 08:26:40;;;;;;;56.60;31.63;;;2.90;99.90;;;;;;5112965;28;20674;-70
2023/03/10 08:29:09;;;;;;;30.80;17.60;;;3.00;99.90;;;;;;5112996;28;20199;-74
2023/03/10 08:31:37;;;;;;;28.20;19.17;;;2.90;99.90;;;;;;5112627;28;20648;-74
2023/03/10 08:34:07;;;;;;;25.30;17.77;;;2.70;99.90;;;;;;5111867;28;20203;-74
2023/03/10 08:36:36;;;;;;;17.40;12.07;;;2.90;99.90;;;;;;5123786;27;20200;-69
2023/03/10 08:39:05;;;;;;;14.87;10.73;;;2.70;99.90;;;;;;5128794;27;20205;-73
2023/03/10 08:41:36;;;;;;;17.57;12.90;;;2.50;99.90;;;;;;5137874;27;20192;-70
2023/03/10 08:44:07;;;;;;;17.47;12.30;;;2.70;99.90;;;;;;5145302;27;20192;-74
2023/03/10 08:46:36;;;;;;;18.73;11.63;;;2.60;99.90;;;;;;5153879;27;20202;-75
2023/03/10 08:49:05;;;;;;;25.03;15.33;;;2.50;99.90;;;;;;5153517;27;20776;-73
2023/03/10 08:51:34;;;;;;;26.30;17.67;;;2.40;99.90;;;;;;5154182;27;20195;-77
2023/03/10 08:54:03;;;;;;;35.93;24.83;;;2.50;99.90;;;;;;5140632;27;20566;-76
2023/03/10 08:56:32;;;;;;;17.27;13.27;;;2.60;99.90;;;;;;5129908;27;20667;-69
2023/03/10 08:59:01;;;;;;;17.83;12.07;;;2.50;99.90;;;;;;5133146;27;20199;-75
2023/03/10 09:01:33;;;;;;;16.67;10.53;;;2.50;99.90;;;;;;5133052;27;20276;-72
2023/03/10 09:04:04;;;;;;;14.30;10.17;;;2.20;99.90;;;;;;5132716;27;20555;-74
2023/03/10 09:06:34;;;;;;;17.60;10.90;;;2.10;99.90;;;;;;5133115;27;20753;-71
2023/03/10 09:09:04;;;;;;;12.73;10.97;;;2.30;99.90;;;;;;5129183;27;20229;-71
2023/03/10 09:11:34;;;;;;;13.57;10.67;;;2.40;99.90;;;;;;5153571;27;20249;-73
2023/03/10 09:14:07;;;;;;;13.97;9.70;;;2.40;99.90;;;;;;5153651;27;20199;-72
2023/03/10 09:16:38;;;;;;;13.27;10.30;;;2.40;99.90;;;;;;5150457;27;20290;-72
2023/03/10 09:19:07;;;;;;;15.90;11.53;;;2.00;99.90;;;;;;5148096;27;20229;-72
2023/03/10 09:21:36;;;;;;;12.77;9.23;;;2.30;99.90;;;;;;5144716;27;20537;-74
2023/03/10 09:24:05;;;;;;;14.00;9.87;;;2.20;99.90;;;;;;5134747;27;20279;-74
2023/03/10 09:26:34;;;;;;;19.20;10.90;;;2.00;99.90;;;;;;5147178;27;20231;-71
2023/03/10 09:29:03;;;;;;;12.50;9.37;;;2.10;99.90;;;;;;5133086;28;20200;-74
2023/03/10 09:31:35;;;;;;;12.63;9.30;;;2.40;99.90;;;;;;5132507;27;20253;-71
2023/03/10 09:34:07;;;;;;;13.83;9.90;;;2.40;99.90;;;;;;5153134;27;20192;-71
2023/03/10 09:36:36;;;;;;;14.33;10.47;;;2.40;99.90;;;;;;5153697;27;20302;-69
2023/03/10 09:39:05;;;;;;;13.87;9.90;;;2.50;99.90;;;;;;5153444;27;20306;-67
2023/03/10 09:42:05;;;;;;;10.07;8.80;;;2.40;99.90;;;;;;5153508;27;20195;-73
2023/03/10 09:44:42;;;;;;;11.57;9.17;;;2.20;99.90;;;;;;5133587;27;20674;-70
2023/03/10 09:47:26;;;;;;;10.10;9.07;;;2.20;99.90;;;;;;5111391;28;20196;-72
2023/03/10 09:50:20;;;;;;;44.00;21.63;;;2.30;99.90;;;;;;5116484;27;20294;-74
2023/03/10 09:52:57;;;;;;;22.13;14.10;;;2.40;99.90;;;;;;5128012;27;20207;-73
2023/03/10 09:55:30;;;;;;;19.23;11.97;;;2.30;99.90;;;;;;5136854;27;20593;-73
2023/03/10 09:57:59;;;;;;;13.97;10.53;;;2.40;99.90;;;;;;5136313;27;20224;-74
2023/03/10 10:00:35;;;;;;;16.83;11.53;;;2.30;99.90;;;;;;5140098;27;20219;-73
2023/03/10 10:03:12;;;;;;;13.97;11.60;;;2.40;99.90;;;;;;5136158;27;20196;-74
2023/03/10 10:05:45;;;;;;;11.53;8.70;;;2.50;99.90;;;;;;5136635;27;20582;-66
2023/03/10 10:08:22;;;;;;;12.80;10.50;;;2.60;99.90;;;;;;5136380;27;20191;-73
2023/03/10 10:10:56;;;;;;;17.47;12.23;;;2.50;99.90;;;;;;5136127;27;20228;-73
2023/03/10 10:13:28;;;;;;;23.80;18.50;;;2.30;99.90;;;;;;5136475;27;20277;-74
2023/03/10 10:16:05;;;;;;;13.90;10.57;;;2.60;99.90;;;;;;5135830;27;20193;-71
2023/03/10 10:19:01;;;;;;;21.10;14.53;;;2.80;99.90;;;;;;5136380;27;20663;-69
2023/03/10 10:21:43;;;;;;;18.13;12.80;;;2.90;99.90;;;;;;5136351;27;20203;-72
2023/03/10 10:24:11;;;;;;;19.73;12.13;;;2.90;99.90;;;;;;5136288;27;20216;-71
2023/03/10 10:26:40;;;;;;;18.27;13.57;;;3.00;99.90;;;;;;5135904;27;20228;-66
2023/03/10 10:29:16;;;;;;;18.67;12.87;;;3.20;99.90;;;;;;5136013;27;20199;-73
2023/03/10 10:32:04;;;;;;;21.17;13.73;;;3.30;99.90;;;;;;5135460;27;20249;-69
2023/03/10 10:34:33;;;;;;;22.70;14.97;;;3.50;99.90;;;;;;5135073;27;20244;-74
2023/03/10 10:37:21;;;;;;;28.33;16.20;;;3.30;99.90;;;;;;5131756;27;20240;-73
2023/03/10 10:39:52;;;;;;;19.57;14.37;;;3.20;99.90;;;;;;5115220;28;20217;-67
2023/03/10 10:42:23;;;;;;;21.77;14.23;;;3.30;99.90;;;;;;5130525;27;20223;-68
2023/03/10 10:44:54;;;;;;;21.37;13.17;;;3.30;99.90;;;;;;5130323;27;20204;-67
2023/03/10 10:47:29;;;;;;;13.63;10.73;;;3.20;99.90;;;;;;5132157;27;20224;-69
2023/03/10 10:50:16;;;;;;;21.60;13.87;;;3.10;99.90;;;;;;5149229;27;20200;-66
2023/03/10 10:52:49;;;;;;;14.23;10.87;;;3.10;99.90;;;;;;5156401;27;20528;-69
2023/03/10 10:55:28;;;;;;;14.60;11.83;;;3.10;99.90;;;;;;5156571;27;20653;-73
2023/03/10 10:57:59;;;;;;;12.83;9.93;;;3.20;99.90;;;;;;5138370;27;20212;-72
2023/03/10 11:00:32;;;;;;;14.87;11.53;;;3.00;99.90;;;;;;5134527;27;20662;-73
2023/03/10 11:03:01;;;;;;;15.67;10.53;;;3.00;99.90;;;;;;5128675;27;20213;-73
2023/03/10 11:05:34;;;;;;;13.17;9.00;;;2.80;99.90;;;;;;5151932;27;20203;-72
2023/03/10 11:08:23;;;;;;;25.57;16.77;;;3.00;99.90;;;;;;5155902;27;20272;-70
2023/03/10 11:10:58;;;;;;;17.93;10.93;;;3.00;99.90;;;;;;5150262;27;20233;-73
2023/03/10 11:13:35;;;;;;;31.20;18.57;;;2.80;99.90;;;;;;5151543;27;20203;-74
2023/03/10 11:16:12;;;;;;;23.70;14.33;;;3.00;99.90;;;;;;5155894;27;20252;-74
2023/03/10 11:18:47;;;;;;;14.73;9.27;;;3.10;99.90;;;;;;5155743;27;20220;-72
2023/03/10 11:21:23;;;;;;;21.20;13.13;;;3.20;99.90;;;;;;5155995;27;20721;-75
2023/03/10 11:24:01;;;;;;;18.80;12.53;;;3.10;99.90;;;;;;5155874;27;20234;-75
2023/03/10 11:26:41;;;;;;;11.57;8.80;;;3.20;99.90;;;;;;5150448;27;20226;-75
2023/03/10 11:29:19;;;;;;;13.00;8.87;;;3.00;99.90;;;;;;5134449;27;20190;-74
2023/03/10 11:31:54;;;;;;;15.80;8.67;;;2.90;99.90;;;;;;5134848;27;20200;-74
2023/03/10 11:34:29;;;;;;;12.13;8.33;;;2.90;99.90;;;;;;5116377;27;20629;-72
2023/03/10 11:37:05;;;;;;;13.70;10.27;;;2.90;99.90;;;;;;5134838;27;20201;-74
2023/03/10 11:39:47;;;;;;;10.80;6.93;;;2.90;99.90;;;;;;5134474;27;20200;-74
2023/03/10 11:42:24;;;;;;;13.67;10.23;;;2.70;99.90;;;;;;5134219;27;20227;-72
2023/03/10 11:45:03;;;;;;;22.67;13.27;;;3.10;99.90;;;;;;5116539;27;20197;-73
2023/03/10 11:47:50;;;;;;;17.80;12.60;;;3.20;99.90;;;;;;5113401;28;20636;-71
2023/03/10 11:50:33;;;;;;;16.77;10.80;;;3.40;99.90;;;;;;5113798;28;20262;-74
2023/03/10 11:53:05;;;;;;;56.00;30.43;;;3.20;99.90;;;;;;5113709;28;20190;-73
2023/03/10 11:55:36;;;;;;;30.03;18.87;;;3.50;99.90;;;;;;5113533;28;20631;-68
2023/03/10 11:58:11;;;;;;;32.50;23.43;;;3.50;99.90;;;;;;5129685;27;20256;-66
2023/03/10 12:00:43;;;;;;;16.73;10.60;;;3.50;99.90;;;;;;5126940;27;20592;-67
2023/03/10 12:03:18;;;;;;;19.27;13.73;;;3.50;99.90;;;;;;5120094;27;20206;-71
2023/03/10 12:05:51;;;;;;;16.80;11.27;;;3.30;99.90;;;;;;5133882;27;20300;-70
2023/03/10 12:08:23;;;;;;;17.13;11.30;;;3.20;99.90;;;;;;5133818;27;20206;-67
2023/03/10 12:10:54;;;;;;;13.43;10.00;;;3.30;99.90;;;;;;5133051;27;20225;-69
2023/03/10 12:13:25;;;;;;;14.83;10.17;;;3.40;99.90;;;;;;5133209;27;20214;-66
2023/03/10 12:15:58;;;;;;;10.77;7.20;;;3.50;99.90;;;;;;5133588;27;20195;-68
2023/03/10 12:18:28;;;;;;;10.27;6.47;;;3.60;99.90;;;;;;5127043;27;20207;-65
2023/03/10 12:21:12;;;;;;;10.83;7.43;;;3.60;99.90;;;;;;5154334;27;20200;-72
2023/03/10 12:23:43;;;;;;;13.03;6.97;;;3.60;99.90;;;;;;5154256;27;20690;-66
2023/03/10 12:26:13;;;;;;;11.33;6.50;;;3.40;99.90;;;;;;5151663;27;20668;-73
2023/03/10 12:28:42;;;;;;;12.53;7.77;;;3.30;99.90;;;;;;5132490;27;20257;-70
2023/03/10 12:31:14;;;;;;;12.77;10.37;;;3.20;99.90;;;;;;5125456;27;20209;-72
2023/03/10 12:33:50;;;;;;;13.33;9.90;;;3.30;99.90;;;;;;5114824;27;20202;-67
2023/03/10 12:36:39;;;;;;;16.67;13.80;;;3.30;99.90;;;;;;5133228;27;20674;-66
2023/03/10 12:39:37;;;;;;;12.50;9.10;;;3.10;99.90;;;;;;5118367;27;20212;-70
2023/03/10 12:42:27;;;;;;;13.60;9.80;;;3.10;99.90;;;;;;5112490;28;20188;-68
2023/03/10 12:45:15;;;;;;;17.73;11.07;;;3.30;99.90;;;;;;5112613;28;20613;-70
2023/03/10 12:47:56;;;;;;;11.50;9.00;;;3.30;99.90;;;;;;5112261;28;20236;-69
2023/03/10 12:50:42;;;;;;;10.40;8.30;;;3.40;99.90;;;;;;5112389;28;20203;-68
2023/03/10 12:53:28;;;;;;;12.50;8.53;;;3.30;99.90;;;;;;5126776;27;20189;-69
2023/03/10 12:56:18;;;;;;;13.60;8.90;;;3.30;99.90;;;;;;5121718;27;20260;-69
2023/03/10 12:58:54;;;;;;;15.33;9.87;;;3.50;99.90;;;;;;5112466;28;20712;-71
2023/03/10 13:01:26;;;;;;;12.57;8.70;;;3.30;99.90;;;;;;5112746;28;20673;-67
2023/03/10 13:03:56;;;;;;;10.13;8.57;;;3.30;99.90;;;;;;5112363;28;20208;-68
2023/03/10 13:06:30;;;;;;;18.00;11.63;;;3.00;99.90;;;;;;5112846;28;20201;-66